Time;durP1;ratioP1;P1;durP2;ratioP2;P2;SDS_P1;SDS_P2;PMS_P1;PMS_P2;Temp;Humidity;BMP_temperature;BMP_pressure;BME280_temperature;BME280_humidity;BME280_pressure;Samples;Min_cycle;Max_cycle;Signal;HPM_P1;HPM_P2
2020/12/04 00:02:39;;;;;;;9.53;6.77;;;;;;;;;;6196033;28;20034;-69
2020/12/04 00:05:40;;;;;;;11.23;6.90;;;;;;;;;;6204289;28;20617;-69
2020/12/04 00:08:40;;;;;;;11.10;7.30;;;;;;;;;;6211896;28;20502;-69
2020/12/04 00:11:40;;;;;;;11.13;6.67;;;;;;;;;;6211534;28;20033;-69
2020/12/04 00:14:40;;;;;;;11.10;6.30;;;;;;;;;;6205914;28;20049;-69
2020/12/04 00:17:41;;;;;;;9.13;6.17;;;;;;;;;;6204976;28;20030;-69
2020/12/04 00:20:41;;;;;;;8.85;5.80;;;;;;;;;;5850109;28;10000290;-69
2020/12/04 00:23:41;;;;;;;8.30;5.17;;;;;;;;;;6208174;28;20099;-69
2020/12/04 00:26:41;;;;;;;8.70;5.37;;;;;;;;;;6209481;28;20045;-69
2020/12/04 00:29:42;;;;;;;8.10;5.90;;;;;;;;;;6206572;28;20018;-69
2020/12/04 00:32:42;;;;;;;6.73;4.80;;;;;;;;;;6203120;28;20145;-69
2020/12/04 00:35:42;;;;;;;7.70;5.23;;;;;;;;;;6208692;28;20030;-70
2020/12/04 00:38:43;;;;;;;8.37;5.63;;;;;;;;;;6210485;28;20053;-70
2020/12/04 00:41:43;;;;;;;8.03;4.83;;;;;;;;;;6206487;28;20363;-70
2020/12/04 00:44:43;;;;;;;7.87;4.63;;;;;;;;;;6205646;28;20121;-69
2020/12/04 00:47:44;;;;;;;7.00;4.43;;;;;;;;;;6198783;28;20030;-70
2020/12/04 00:50:44;;;;;;;5.90;4.33;;;;;;;;;;6205533;28;20036;-70
2020/12/04 00:53:44;;;;;;;6.93;4.97;;;;;;;;;;6212471;28;20514;-71
2020/12/04 00:56:44;;;;;;;6.97;4.27;;;;;;;;;;6204427;28;20415;-70
2020/12/04 00:59:45;;;;;;;7.10;4.67;;;;;;;;;;6202542;28;21083;-70
2020/12/04 01:02:45;;;;;;;6.17;4.50;;;;;;;;;;6203998;28;20038;-70
2020/12/04 01:05:45;;;;;;;5.87;4.20;;;;;;;;;;6207952;28;20056;-70
2020/12/04 01:08:46;;;;;;;6.20;4.30;;;;;;;;;;6199891;28;20021;-70
2020/12/04 01:11:46;;;;;;;7.00;4.07;;;;;;;;;;6211729;28;20022;-70
2020/12/04 01:14:46;;;;;;;6.20;4.30;;;;;;;;;;6200414;28;20468;-70
2020/12/04 01:17:46;;;;;;;6.80;4.70;;;;;;;;;;6196936;28;20038;-70
2020/12/04 01:20:47;;;;;;;6.80;4.30;;;;;;;;;;6213102;28;20033;-70
2020/12/04 01:23:50;;;;;;;5.87;4.27;;;;;;;;;;6219886;28;20033;-70
2020/12/04 01:26:50;;;;;;;6.45;4.45;;;;;;;;;;6206583;28;20871;-70
2020/12/04 01:29:50;;;;;;;6.13;4.37;;;;;;;;;;6198273;28;20067;-70
2020/12/04 01:32:51;;;;;;;6.70;4.50;;;;;;;;;;6209519;28;20034;-70
2020/12/04 01:35:51;;;;;;;5.13;3.90;;;;;;;;;;6212870;28;20029;-70
2020/12/04 01:38:51;;;;;;;6.63;4.27;;;;;;;;;;6203229;28;20034;-71
2020/12/04 01:41:51;;;;;;;6.83;4.23;;;;;;;;;;6207762;28;20041;-70
2020/12/04 01:44:52;;;;;;;8.23;4.80;;;;;;;;;;6206956;28;20036;-71
2020/12/04 01:47:53;;;;;;;7.63;4.70;;;;;;;;;;6203595;28;20089;-70
2020/12/04 01:50:53;;;;;;;5.82;3.92;;;;;;;;;;6204086;28;20045;-70
2020/12/04 01:53:53;;;;;;;6.50;4.63;;;;;;;;;;6204876;28;20089;-70
2020/12/04 01:56:54;;;;;;;6.83;4.67;;;;;;;;;;6208531;28;20070;-70
2020/12/04 01:59:54;;;;;;;6.73;5.00;;;;;;;;;;6216866;28;20383;-70
2020/12/04 02:02:54;;;;;;;5.97;4.50;;;;;;;;;;6202968;28;20144;-70
2020/12/04 02:05:57;;;;;;;6.60;4.47;;;;;;;;;;6206458;28;20025;-70
2020/12/04 02:09:04;;;;;;;6.25;4.30;;;;;;;;;;6199219;28;20034;-70
2020/12/04 02:12:05;;;;;;;6.45;4.28;;;;;;;;;;6201670;28;20325;-71
2020/12/04 02:15:06;;;;;;;6.45;4.38;;;;;;;;;;6203808;28;20057;-71
2020/12/04 02:18:06;;;;;;;6.00;4.40;;;;;;;;;;6208999;28;20093;-70
2020/12/04 02:21:06;;;;;;;6.23;4.27;;;;;;;;;;6215927;28;20038;-70
2020/12/04 02:24:07;;;;;;;7.03;4.27;;;;;;;;;;6203614;28;20023;-70
2020/12/04 02:27:13;;;;;;;5.00;4.07;;;;;;;;;;6200866;28;20033;-71
2020/12/04 02:30:19;;;;;;;6.90;4.43;;;;;;;;;;6220160;28;21484;-71
2020/12/04 02:33:19;;;;;;;6.45;4.32;;;;;;;;;;6203380;28;20083;-71
2020/12/04 02:36:19;;;;;;;5.93;4.33;;;;;;;;;;6202687;28;20021;-71
2020/12/04 02:39:20;;;;;;;6.67;4.17;;;;;;;;;;6196913;28;20949;-71
2020/12/04 02:42:20;;;;;;;4.97;3.63;;;;;;;;;;6205343;28;20073;-71
2020/12/04 02:45:21;;;;;;;5.63;3.87;;;;;;;;;;6202093;28;20081;-72
2020/12/04 02:48:21;;;;;;;5.32;3.70;;;;;;;;;;6207241;28;20018;-71
2020/12/04 02:51:22;;;;;;;6.33;4.07;;;;;;;;;;6203526;28;20038;-72
2020/12/04 02:54:22;;;;;;;6.60;4.20;;;;;;;;;;6207684;28;20447;-72
2020/12/04 02:57:22;;;;;;;5.70;3.73;;;;;;;;;;6202432;28;20133;-72
2020/12/04 03:00:22;;;;;;;5.77;3.77;;;;;;;;;;6197452;28;20058;-72
2020/12/04 03:03:23;;;;;;;4.93;4.07;;;;;;;;;;6209256;28;20404;-71
2020/12/04 03:06:23;;;;;;;5.03;3.60;;;;;;;;;;6210264;28;20053;-71
2020/12/04 03:09:23;;;;;;;5.60;4.13;;;;;;;;;;6207963;28;20026;-71
2020/12/04 03:12:23;;;;;;;7.73;4.53;;;;;;;;;;6202260;28;20089;-70
2020/12/04 03:15:24;;;;;;;6.70;3.90;;;;;;;;;;6208858;28;20026;-70
2020/12/04 03:18:24;;;;;;;5.53;3.90;;;;;;;;;;6203875;28;20034;-72
2020/12/04 03:21:24;;;;;;;6.90;4.50;;;;;;;;;;6206577;28;20037;-70
2020/12/04 03:24:25;;;;;;;5.50;3.90;;;;;;;;;;6202695;28;20109;-72
2020/12/04 03:27:25;;;;;;;5.80;3.83;;;;;;;;;;6198551;28;20019;-73
2020/12/04 03:30:25;;;;;;;5.43;3.63;;;;;;;;;;6198375;28;20188;-72
2020/12/04 03:33:25;;;;;;;7.23;3.90;;;;;;;;;;6208697;28;20042;-72
2020/12/04 03:36:26;;;;;;;6.17;4.47;;;;;;;;;;6201418;28;20037;-72
2020/12/04 03:39:26;;;;;;;5.63;4.47;;;;;;;;;;6207172;28;20029;-72
2020/12/04 03:42:27;;;;;;;6.43;4.37;;;;;;;;;;6201248;28;20034;-72
2020/12/04 03:45:27;;;;;;;7.00;4.77;;;;;;;;;;6223218;28;20156;-72
2020/12/04 03:48:27;;;;;;;6.57;4.37;;;;;;;;;;6205125;28;20452;-72
2020/12/04 03:51:27;;;;;;;5.27;4.13;;;;;;;;;;6202891;28;20465;-72
2020/12/04 03:54:27;;;;;;;5.97;4.10;;;;;;;;;;6209513;28;20025;-72
2020/12/04 03:57:28;;;;;;;8.03;4.33;;;;;;;;;;6200998;28;20044;-71
2020/12/04 04:00:28;;;;;;;7.13;5.17;;;;;;;;;;6200828;28;20032;-71
2020/12/04 04:03:28;;;;;;;5.57;4.33;;;;;;;;;;6203376;28;20130;-71
2020/12/04 04:06:28;;;;;;;6.67;4.57;;;;;;;;;;6210542;28;20076;-72
2020/12/04 04:09:29;;;;;;;7.67;4.87;;;;;;;;;;6224287;28;20671;-71
2020/12/04 04:12:29;;;;;;;6.57;4.93;;;;;;;;;;6207835;28;20022;-71
2020/12/04 04:15:29;;;;;;;9.57;5.20;;;;;;;;;;6199914;28;20029;-71
2020/12/04 04:18:29;;;;;;;7.23;5.07;;;;;;;;;;6205253;28;20464;-71
2020/12/04 04:21:30;;;;;;;8.40;5.40;;;;;;;;;;6201389;28;20041;-71
2020/12/04 04:24:30;;;;;;;8.23;5.23;;;;;;;;;;6198573;28;20023;-71
2020/12/04 04:27:30;;;;;;;7.53;5.47;;;;;;;;;;6205954;28;20026;-71
2020/12/04 04:30:31;;;;;;;8.03;5.70;;;;;;;;;;6203223;28;20025;-71
2020/12/04 04:33:31;;;;;;;8.30;5.70;;;;;;;;;;6198590;28;20466;-71
2020/12/04 04:36:31;;;;;;;8.53;6.17;;;;;;;;;;6206124;28;20037;-71
2020/12/04 04:39:31;;;;;;;9.30;5.67;;;;;;;;;;6201467;28;20048;-71
2020/12/04 04:42:32;;;;;;;10.67;5.83;;;;;;;;;;6204512;28;20532;-71
2020/12/04 04:45:33;;;;;;;8.27;5.67;;;;;;;;;;6204949;28;20022;-71
2020/12/04 04:48:34;;;;;;;9.27;5.97;;;;;;;;;;6206894;28;20045;-71
2020/12/04 04:51:34;;;;;;;10.63;6.50;;;;;;;;;;6201612;28;20053;-71
2020/12/04 04:54:36;;;;;;;10.83;6.40;;;;;;;;;;6208028;28;20022;-71
2020/12/04 04:57:36;;;;;;;9.68;5.78;;;;;;;;;;6207701;28;20056;-71
2020/12/04 05:00:36;;;;;;;11.70;6.33;;;;;;;;;;6199742;28;20030;-67
2020/12/04 05:03:37;;;;;;;9.60;6.40;;;;;;;;;;6205308;28;20042;-71
2020/12/04 05:06:37;;;;;;;9.83;6.23;;;;;;;;;;6199504;28;20084;-71
2020/12/04 05:09:37;;;;;;;11.47;6.97;;;;;;;;;;6200339;28;20037;-71
2020/12/04 05:12:38;;;;;;;9.20;5.77;;;;;;;;;;6196769;28;20068;-70
2020/12/04 05:15:39;;;;;;;8.52;5.75;;;;;;;;;;6204228;28;20073;-70
2020/12/04 05:18:39;;;;;;;10.13;6.53;;;;;;;;;;6201568;28;20038;-71
2020/12/04 05:21:40;;;;;;;10.63;6.43;;;;;;;;;;6197248;28;20154;-73
2020/12/04 05:24:41;;;;;;;10.37;6.97;;;;;;;;;;6199108;28;20026;-73
2020/12/04 05:27:41;;;;;;;9.63;6.68;;;;;;;;;;6208178;28;20026;-72
2020/12/04 05:30:43;;;;;;;10.53;6.87;;;;;;;;;;6202290;28;20484;-77
2020/12/04 05:33:45;;;;;;;10.57;6.38;;;;;;;;;;6206331;28;20334;-77
2020/12/04 05:36:46;;;;;;;11.93;6.82;;;;;;;;;;6204031;28;20553;-76
2020/12/04 05:39:47;;;;;;;;;;;;;;;;;;6204088;28;20068;-76
2020/12/04 05:42:47;;;;;;;9.60;5.93;;;;;;;;;;6216631;28;19921;-77
2020/12/04 05:45:47;;;;;;;8.37;5.70;;;;;;;;;;6207180;28;20289;-75
2020/12/04 05:48:54;;;;;;;11.60;7.03;;;;;;;;;;5859615;28;10000234;-77
2020/12/04 05:51:54;;;;;;;11.70;6.43;;;;;;;;;;6207263;28;20026;-77
2020/12/04 05:54:57;;;;;;;9.87;6.50;;;;;;;;;;6207097;28;20172;-76
2020/12/04 05:58:00;;;;;;;10.25;7.05;;;;;;;;;;6204750;28;20029;-76
2020/12/04 06:01:02;;;;;;;11.80;7.03;;;;;;;;;;6198945;28;20026;-76
2020/12/04 06:04:03;;;;;;;11.27;6.57;;;;;;;;;;6225452;28;20033;-77
2020/12/04 06:07:04;;;;;;;11.70;7.00;;;;;;;;;;6193967;28;20034;-76
2020/12/04 06:10:05;;;;;;;13.35;6.95;;;;;;;;;;6209044;28;20029;-73
2020/12/04 06:13:06;;;;;;;11.10;6.82;;;;;;;;;;6209487;28;20036;-72
2020/12/04 06:16:13;;;;;;;9.73;6.20;;;;;;;;;;6197053;28;20022;-71
2020/12/04 06:19:32;;;;;;;11.38;6.95;;;;;;;;;;6198516;28;20041;-73
2020/12/04 06:22:33;;;;;;;9.75;6.60;;;;;;;;;;6199603;28;20018;-72
2020/12/04 06:25:52;;;;;;;11.83;6.93;;;;;;;;;;6204335;28;20404;-72
2020/12/04 06:28:55;;;;;;;13.10;7.75;;;;;;;;;;6218689;28;20390;-72
2020/12/04 06:31:55;;;;;;;14.18;7.82;;;;;;;;;;6206727;28;20053;-72
2020/12/04 06:34:56;;;;;;;11.37;7.13;;;;;;;;;;6205446;28;20026;-72
2020/12/04 06:37:56;;;;;;;12.63;7.20;;;;;;;;;;6199872;28;20093;-72
2020/12/04 06:41:15;;;;;;;9.20;6.30;;;;;;;;;;6198177;28;20488;-73
2020/12/04 06:44:25;;;;;;;11.52;6.75;;;;;;;;;;6204003;28;20038;-72
2020/12/04 06:47:27;;;;;;;12.57;7.45;;;;;;;;;;6221899;28;20037;-73
2020/12/04 06:50:36;;;;;;;11.15;6.63;;;;;;;;;;6200114;28;20034;-73
2020/12/04 06:53:36;;;;;;;10.38;6.43;;;;;;;;;;6206644;28;20124;-72
2020/12/04 06:56:37;;;;;;;9.13;6.10;;;;;;;;;;6203988;28;20455;-73
2020/12/04 06:59:41;;;;;;;11.10;6.73;;;;;;;;;;6197267;28;20448;-74
2020/12/04 07:02:41;;;;;;;10.90;6.63;;;;;;;;;;6200310;28;20030;-73
2020/12/04 07:05:47;;;;;;;12.13;6.73;;;;;;;;;;6217757;28;20391;-72
2020/12/04 07:08:54;;;;;;;10.43;6.82;;;;;;;;;;6196202;28;20038;-73
2020/12/04 07:11:56;;;;;;;10.10;6.65;;;;;;;;;;6205135;28;20379;-72
2020/12/04 07:15:00;;;;;;;9.85;6.35;;;;;;;;;;6200623;28;20038;-73
2020/12/04 07:18:00;;;;;;;11.98;6.38;;;;;;;;;;6214559;28;20026;-73
2020/12/04 07:21:01;;;;;;;10.40;6.20;;;;;;;;;;6219484;28;20119;-73
2020/12/04 07:24:01;;;;;;;10.63;6.63;;;;;;;;;;6208789;28;20029;-73
2020/12/04 07:27:01;;;;;;;10.97;6.40;;;;;;;;;;6198111;28;20026;-73
2020/12/04 07:30:11;;;;;;;11.33;6.03;;;;;;;;;;6205384;28;20025;-73
2020/12/04 07:33:12;;;;;;;10.00;6.60;;;;;;;;;;6210459;28;20017;-71
2020/12/04 07:36:12;;;;;;;10.10;6.22;;;;;;;;;;6204697;28;20048;-72
2020/12/04 07:39:20;;;;;;;11.00;6.07;;;;;;;;;;6204678;28;20038;-73
2020/12/04 07:42:20;;;;;;;13.65;7.03;;;;;;;;;;6205988;28;20080;-73
2020/12/04 07:45:21;;;;;;;10.17;6.63;;;;;;;;;;6199230;28;20424;-72
2020/12/04 07:48:21;;;;;;;10.10;6.37;;;;;;;;;;6206563;28;20180;-72
2020/12/04 07:51:21;;;;;;;10.70;6.93;;;;;;;;;;6202435;28;20341;-73
2020/12/04 07:54:22;;;;;;;10.00;6.97;;;;;;;;;;6202050;28;20029;-72
2020/12/04 07:57:28;;;;;;;11.15;7.15;;;;;;;;;;6209671;28;20050;-73
2020/12/04 08:00:31;;;;;;;12.23;7.15;;;;;;;;;;6204858;28;20026;-73
2020/12/04 08:03:32;;;;;;;12.15;6.78;;;;;;;;;;6190549;28;20034;-72
2020/12/04 08:06:32;;;;;;;11.53;7.10;;;;;;;;;;6195440;28;20104;-74
2020/12/04 08:09:40;;;;;;;11.83;6.70;;;;;;;;;;6181669;28;20038;-72
2020/12/04 08:12:42;;;;;;;11.82;7.10;;;;;;;;;;6204127;28;20022;-73
2020/12/04 08:15:42;;;;;;;10.93;6.85;;;;;;;;;;6206424;28;20056;-73
2020/12/04 08:18:45;;;;;;;12.10;7.90;;;;;;;;;;5856079;28;9999633;-72
2020/12/04 08:21:59;;;;;;;13.98;7.50;;;;;;;;;;6196690;28;20029;-72
2020/12/04 08:28:05;;;;;;;9.20;6.50;;;;;;;;;;6196941;28;20025;-72
2020/12/04 08:31:05;;;;;;;11.20;7.22;;;;;;;;;;6195263;28;20030;-72
2020/12/04 08:34:05;;;;;;;13.53;7.67;;;;;;;;;;6207062;28;20065;-72
2020/12/04 08:37:07;;;;;;;11.37;6.53;;;;;;;;;;6205504;28;20060;-72
2020/12/04 08:40:46;;;;;;;10.68;6.80;;;;;;;;;;6203407;28;20037;-72
2020/12/04 08:43:49;;;;;;;10.15;6.43;;;;;;;;;;6211724;28;20037;-71
2020/12/04 08:46:49;;;;;;;12.23;7.07;;;;;;;;;;6209317;28;20042;-72
2020/12/04 08:49:49;;;;;;;11.10;6.80;;;;;;;;;;6200910;28;20165;-72
2020/12/04 08:52:50;;;;;;;10.30;6.87;;;;;;;;;;6202412;28;20451;-71
2020/12/04 08:55:52;;;;;;;11.00;6.63;;;;;;;;;;6212322;28;20026;-71
2020/12/04 08:58:52;;;;;;;11.52;7.13;;;;;;;;;;6199125;28;20021;-71
2020/12/04 09:01:52;;;;;;;11.00;7.23;;;;;;;;;;6209975;28;20171;-71
2020/12/04 09:04:54;;;;;;;11.07;7.13;;;;;;;;;;6211554;28;20082;-71
2020/12/04 09:07:54;;;;;;;11.48;7.68;;;;;;;;;;6203120;28;20025;-71
2020/12/04 09:10:54;;;;;;;12.40;7.60;;;;;;;;;;6209387;28;20113;-71
2020/12/04 09:13:54;;;;;;;13.70;7.27;;;;;;;;;;6202760;28;20113;-72
2020/12/04 09:16:55;;;;;;;13.27;7.23;;;;;;;;;;6217617;28;20018;-72
2020/12/04 09:19:56;;;;;;;10.83;7.23;;;;;;;;;;6215714;28;20037;-71
2020/12/04 09:22:56;;;;;;;13.02;7.47;;;;;;;;;;6214473;28;20029;-73
2020/12/04 09:25:56;;;;;;;10.50;7.17;;;;;;;;;;6220341;28;20073;-73
2020/12/04 09:28:57;;;;;;;10.60;7.20;;;;;;;;;;6213334;28;20026;-72
2020/12/04 09:31:57;;;;;;;12.30;7.40;;;;;;;;;;6204248;28;20033;-72
2020/12/04 09:34:58;;;;;;;11.90;6.87;;;;;;;;;;6206423;28;20026;-72
2020/12/04 09:37:58;;;;;;;12.97;7.97;;;;;;;;;;6203142;28;20026;-72
2020/12/04 09:40:58;;;;;;;13.33;7.97;;;;;;;;;;6213217;28;20042;-71
2020/12/04 09:43:58;;;;;;;12.50;7.80;;;;;;;;;;6203921;28;20025;-73
2020/12/04 09:46:59;;;;;;;11.87;7.00;;;;;;;;;;6188594;28;20309;-72
2020/12/04 09:49:59;;;;;;;12.90;7.70;;;;;;;;;;6212737;28;20026;-73
2020/12/04 09:53:00;;;;;;;11.52;7.53;;;;;;;;;;6205129;28;20113;-73
2020/12/04 09:56:00;;;;;;;11.63;7.80;;;;;;;;;;6211364;28;20057;-73
2020/12/04 09:59:00;;;;;;;13.63;7.73;;;;;;;;;;6200355;28;20030;-72
2020/12/04 10:02:01;;;;;;;13.17;8.50;;;;;;;;;;6203916;28;20038;-72
2020/12/04 10:05:02;;;;;;;12.70;8.13;;;;;;;;;;6200997;28;20010;-72
2020/12/04 10:08:03;;;;;;;14.02;7.93;;;;;;;;;;6205023;28;20338;-73
2020/12/04 10:11:03;;;;;;;12.17;7.80;;;;;;;;;;6205159;28;20026;-73
2020/12/04 10:14:04;;;;;;;15.60;8.83;;;;;;;;;;6207666;28;20403;-73
2020/12/04 10:17:04;;;;;;;14.13;8.40;;;;;;;;;;6210545;28;20041;-73
2020/12/04 10:20:04;;;;;;;13.00;8.07;;;;;;;;;;6206457;28;20420;-73
2020/12/04 10:23:04;;;;;;;15.67;8.80;;;;;;;;;;6205935;28;20014;-73
2020/12/04 10:26:05;;;;;;;15.10;9.27;;;;;;;;;;6207549;28;20038;-73
2020/12/04 10:29:05;;;;;;;13.10;8.00;;;;;;;;;;6212655;28;20015;-73
2020/12/04 10:32:06;;;;;;;15.27;8.53;;;;;;;;;;6202230;28;20034;-73
2020/12/04 10:35:06;;;;;;;13.27;7.93;;;;;;;;;;6203814;28;20411;-73
2020/12/04 10:38:07;;;;;;;13.67;8.43;;;;;;;;;;6211699;28;20025;-73
2020/12/04 10:41:07;;;;;;;16.37;9.47;;;;;;;;;;6217919;28;20076;-73
2020/12/04 10:44:08;;;;;;;13.97;8.33;;;;;;;;;;6199808;28;20285;-73
2020/12/04 10:47:08;;;;;;;15.80;9.57;;;;;;;;;;6211345;28;20032;-73
2020/12/04 10:50:09;;;;;;;16.07;8.70;;;;;;;;;;6212423;28;20022;-73
2020/12/04 10:53:09;;;;;;;15.43;8.67;;;;;;;;;;6214719;28;20108;-72
2020/12/04 10:56:10;;;;;;;14.77;8.63;;;;;;;;;;6206368;28;20044;-73
2020/12/04 10:59:10;;;;;;;13.87;8.67;;;;;;;;;;6201580;28;20034;-73
2020/12/04 11:02:25;;;;;;;14.23;8.03;;;;;;;;;;6210068;28;20031;-72
2020/12/04 11:05:45;;;;;;;14.65;8.75;;;;;;;;;;6204053;28;20022;-72
2020/12/04 11:08:49;;;;;;;15.57;8.98;;;;;;;;;;6214109;28;20064;-73
2020/12/04 11:11:49;;;;;;;17.23;9.60;;;;;;;;;;6228168;28;20037;-72
2020/12/04 11:14:49;;;;;;;17.13;9.03;;;;;;;;;;6205095;28;20459;-73
2020/12/04 11:17:52;;;;;;;15.07;8.83;;;;;;;;;;6213226;28;20076;-72
2020/12/04 11:20:52;;;;;;;16.52;9.43;;;;;;;;;;6211642;28;21136;-72
2020/12/04 11:23:52;;;;;;;14.60;8.90;;;;;;;;;;6205170;28;20030;-72
2020/12/04 11:26:52;;;;;;;15.97;9.03;;;;;;;;;;6212566;28;20153;-72
2020/12/04 11:29:53;;;;;;;17.13;9.50;;;;;;;;;;6209887;28;20025;-72
2020/12/04 11:32:53;;;;;;;17.93;8.87;;;;;;;;;;6205447;28;20515;-72
2020/12/04 11:35:54;;;;;;;16.30;9.80;;;;;;;;;;6203142;28;20076;-72
2020/12/04 11:38:54;;;;;;;18.10;8.65;;;;;;;;;;6207096;28;20040;-72
2020/12/04 11:41:55;;;;;;;18.17;10.27;;;;;;;;;;6200771;28;20034;-71
2020/12/04 11:44:55;;;;;;;15.30;10.23;;;;;;;;;;6208329;28;20022;-72
2020/12/04 11:47:56;;;;;;;15.97;9.83;;;;;;;;;;6210729;28;20018;-72
2020/12/04 11:50:56;;;;;;;15.23;8.67;;;;;;;;;;6207716;28;20034;-72
2020/12/04 11:53:56;;;;;;;16.23;9.33;;;;;;;;;;6203052;28;20330;-72
2020/12/04 11:56:57;;;;;;;16.43;9.90;;;;;;;;;;6203676;28;20452;-73
2020/12/04 11:59:57;;;;;;;17.17;9.53;;;;;;;;;;6212738;28;20092;-72
2020/12/04 12:02:58;;;;;;;15.20;9.20;;;;;;;;;;6205865;28;20041;-72
2020/12/04 12:05:58;;;;;;;19.53;9.90;;;;;;;;;;6206554;28;20109;-72
2020/12/04 12:08:58;;;;;;;16.33;9.63;;;;;;;;;;6207591;28;20030;-72
2020/12/04 12:11:58;;;;;;;17.00;9.73;;;;;;;;;;6205463;28;20031;-72
2020/12/04 12:14:59;;;;;;;17.80;9.97;;;;;;;;;;6198185;28;20359;-71
2020/12/04 12:17:59;;;;;;;19.17;10.70;;;;;;;;;;6202875;28;20031;-71
2020/12/04 12:20:59;;;;;;;18.63;11.00;;;;;;;;;;6201275;28;20038;-71
2020/12/04 12:23:59;;;;;;;19.90;11.47;;;;;;;;;;6200598;28;20040;-72
2020/12/04 12:27:00;;;;;;;18.77;10.63;;;;;;;;;;6197987;28;20906;-71
2020/12/04 12:30:00;;;;;;;21.73;11.20;;;;;;;;;;6206669;28;20565;-71
2020/12/04 12:33:00;;;;;;;17.60;10.20;;;;;;;;;;6202727;28;20038;-71
2020/12/04 12:36:00;;;;;;;17.50;9.97;;;;;;;;;;6202721;28;20050;-71
2020/12/04 12:39:01;;;;;;;18.70;10.50;;;;;;;;;;6209545;28;20030;-71
2020/12/04 12:42:04;;;;;;;16.77;9.93;;;;;;;;;;6203958;28;20160;-71
2020/12/04 12:45:05;;;;;;;16.00;9.55;;;;;;;;;;6207515;28;20029;-71
2020/12/04 12:48:06;;;;;;;17.40;10.75;;;;;;;;;;6203996;28;20050;-71
2020/12/04 12:51:07;;;;;;;16.90;10.52;;;;;;;;;;6200723;28;20030;-70
2020/12/04 12:54:07;;;;;;;18.77;10.43;;;;;;;;;;6205661;28;20410;-71
2020/12/04 12:57:07;;;;;;;17.83;10.50;;;;;;;;;;6197892;28;20022;-70
2020/12/04 13:00:08;;;;;;;15.10;9.40;;;;;;;;;;6200121;28;20036;-70
2020/12/04 13:03:08;;;;;;;15.87;10.07;;;;;;;;;;6203945;28;20028;-71
2020/12/04 13:06:08;;;;;;;18.80;10.47;;;;;;;;;;6199764;28;20035;-71
2020/12/04 13:09:08;;;;;;;17.67;9.97;;;;;;;;;;6202189;28;20022;-70
2020/12/04 13:12:09;;;;;;;17.67;9.77;;;;;;;;;;6202474;28;20034;-70
2020/12/04 13:15:09;;;;;;;17.00;10.00;;;;;;;;;;6200807;28;20395;-71
2020/12/04 13:18:09;;;;;;;16.83;10.43;;;;;;;;;;6195862;28;20345;-70
2020/12/04 13:21:10;;;;;;;16.83;10.03;;;;;;;;;;6196769;28;20034;-71
2020/12/04 13:24:11;;;;;;;15.77;9.43;;;;;;;;;;6206961;28;20030;-70
2020/12/04 13:27:11;;;;;;;17.73;10.87;;;;;;;;;;6200127;28;20045;-71
2020/12/04 13:30:11;;;;;;;15.13;9.80;;;;;;;;;;6197996;28;20113;-71
2020/12/04 13:33:11;;;;;;;17.90;10.30;;;;;;;;;;6199435;28;20065;-71
2020/12/04 13:36:12;;;;;;;16.43;9.83;;;;;;;;;;6198087;28;20040;-70
2020/12/04 13:39:12;;;;;;;18.03;9.63;;;;;;;;;;6196375;28;20534;-71
2020/12/04 13:42:13;;;;;;;16.13;9.63;;;;;;;;;;6200913;28;20038;-71
2020/12/04 13:45:13;;;;;;;17.10;9.80;;;;;;;;;;6203579;28;20117;-70
2020/12/04 13:48:13;;;;;;;16.67;10.13;;;;;;;;;;6196795;28;20037;-71
2020/12/04 13:51:14;;;;;;;20.37;10.50;;;;;;;;;;6204172;28;20511;-71
2020/12/04 13:54:14;;;;;;;16.50;9.67;;;;;;;;;;6203600;28;20041;-71
2020/12/04 13:57:15;;;;;;;18.35;10.10;;;;;;;;;;6202900;28;20030;-71
2020/12/04 14:00:15;;;;;;;15.80;9.63;;;;;;;;;;6204823;28;20392;-71
2020/12/04 14:03:15;;;;;;;15.63;9.83;;;;;;;;;;6214092;28;20026;-71
2020/12/04 14:06:16;;;;;;;17.27;9.27;;;;;;;;;;6205820;28;20500;-71
2020/12/04 14:09:16;;;;;;;18.13;10.00;;;;;;;;;;6216491;28;20475;-71
2020/12/04 14:12:16;;;;;;;20.40;10.97;;;;;;;;;;6199618;28;20034;-71
2020/12/04 14:15:17;;;;;;;16.23;10.17;;;;;;;;;;6209962;28;20476;-71
2020/12/04 14:18:18;;;;;;;17.67;9.83;;;;;;;;;;6205533;28;20436;-70
2020/12/04 14:21:18;;;;;;;18.13;9.98;;;;;;;;;;6209963;28;20086;-70
2020/12/04 14:24:18;;;;;;;17.33;10.47;;;;;;;;;;6215057;28;20042;-70
2020/12/04 14:27:19;;;;;;;16.27;10.03;;;;;;;;;;6207325;28;20076;-71
2020/12/04 14:30:20;;;;;;;18.80;10.57;;;;;;;;;;6199653;28;20030;-70
2020/12/04 14:33:21;;;;;;;16.52;9.48;;;;;;;;;;6197670;28;20030;-71
2020/12/04 14:36:22;;;;;;;15.00;9.60;;;;;;;;;;6208368;28;20087;-71
2020/12/04 14:39:22;;;;;;;14.25;9.10;;;;;;;;;;6206258;28;20061;-70
2020/12/04 14:42:23;;;;;;;16.90;9.93;;;;;;;;;;6184349;28;20057;-70
2020/12/04 14:45:23;;;;;;;18.43;10.10;;;;;;;;;;6198230;28;20368;-70
2020/12/04 14:48:23;;;;;;;18.27;10.40;;;;;;;;;;6198392;28;20017;-70
2020/12/04 14:51:28;;;;;;;16.20;9.87;;;;;;;;;;6201885;28;20463;-71
2020/12/04 14:54:28;;;;;;;16.75;10.38;;;;;;;;;;6201845;28;20029;-71
2020/12/04 14:57:28;;;;;;;17.30;10.17;;;;;;;;;;6199100;28;20065;-71
2020/12/04 15:00:29;;;;;;;19.90;10.90;;;;;;;;;;6205094;28;20085;-70
2020/12/04 15:03:29;;;;;;;18.80;11.15;;;;;;;;;;6205101;28;20037;-71
2020/12/04 15:06:30;;;;;;;15.70;9.87;;;;;;;;;;6197619;28;20034;-70
2020/12/04 15:09:30;;;;;;;16.00;9.70;;;;;;;;;;6214880;28;20018;-71
2020/12/04 15:12:31;;;;;;;17.57;9.47;;;;;;;;;;6198137;28;20030;-70
2020/12/04 15:15:31;;;;;;;16.70;9.60;;;;;;;;;;6196722;28;20026;-71
2020/12/04 15:18:32;;;;;;;15.80;9.73;;;;;;;;;;6214296;28;20030;-70
2020/12/04 15:21:32;;;;;;;16.88;9.95;;;;;;;;;;6198201;28;20586;-70
2020/12/04 15:24:33;;;;;;;15.67;9.40;;;;;;;;;;6199577;28;20029;-70
2020/12/04 15:27:33;;;;;;;17.83;10.57;;;;;;;;;;6194642;28;20656;-70
2020/12/04 15:30:33;;;;;;;17.63;10.20;;;;;;;;;;6195750;28;20080;-71
2020/12/04 15:33:34;;;;;;;17.83;10.13;;;;;;;;;;6202196;28;20030;-70
2020/12/04 15:36:34;;;;;;;18.67;10.83;;;;;;;;;;6206997;28;20030;-71
2020/12/04 15:39:34;;;;;;;15.17;9.37;;;;;;;;;;6210065;28;20022;-70
2020/12/04 15:42:35;;;;;;;17.77;9.23;;;;;;;;;;6206491;28;20030;-70
2020/12/04 15:45:35;;;;;;;18.30;11.03;;;;;;;;;;6198788;28;20040;-70
2020/12/04 15:48:35;;;;;;;16.73;10.53;;;;;;;;;;6205112;28;20101;-70
2020/12/04 15:51:36;;;;;;;17.27;10.03;;;;;;;;;;6211569;28;20161;-70
2020/12/04 15:54:36;;;;;;;21.97;10.50;;;;;;;;;;6204730;28;20078;-70
2020/12/04 15:57:36;;;;;;;17.73;10.77;;;;;;;;;;6204011;28;20334;-71
2020/12/04 16:00:38;;;;;;;19.37;11.40;;;;;;;;;;6209563;28;20033;-70
2020/12/04 16:03:38;;;;;;;17.02;9.85;;;;;;;;;;6203284;28;20079;-71
2020/12/04 16:06:39;;;;;;;17.13;10.10;;;;;;;;;;6215483;28;20037;-70
2020/12/04 16:09:39;;;;;;;16.67;9.77;;;;;;;;;;6201882;28;20040;-70
2020/12/04 16:12:39;;;;;;;19.17;11.33;;;;;;;;;;6201094;28;20014;-70
2020/12/04 16:15:40;;;;;;;17.67;10.87;;;;;;;;;;6202526;28;20049;-69
2020/12/04 16:18:40;;;;;;;18.43;10.47;;;;;;;;;;6198090;28;20092;-70
2020/12/04 16:21:44;;;;;;;19.30;10.60;;;;;;;;;;6201628;28;20049;-70
2020/12/04 16:24:44;;;;;;;17.08;10.10;;;;;;;;;;6200400;28;20359;-70
2020/12/04 16:27:44;;;;;;;18.53;10.30;;;;;;;;;;6206340;28;20019;-69
2020/12/04 16:30:45;;;;;;;18.03;10.27;;;;;;;;;;6205044;28;20484;-68
2020/12/04 16:33:46;;;;;;;22.17;10.80;;;;;;;;;;6198209;28;20030;-68
2020/12/04 16:36:46;;;;;;;19.48;10.82;;;;;;;;;;6203562;28;20031;-70
2020/12/04 16:39:46;;;;;;;17.43;9.33;;;;;;;;;;6200079;28;20465;-67
2020/12/04 16:42:47;;;;;;;16.37;9.47;;;;;;;;;;6199622;28;20049;-68
2020/12/04 16:45:47;;;;;;;19.13;10.87;;;;;;;;;;6202728;28;20030;-71
2020/12/04 16:48:47;;;;;;;17.17;9.37;;;;;;;;;;6209337;28;20026;-66
2020/12/04 16:51:48;;;;;;;17.17;9.67;;;;;;;;;;6205811;28;20040;-70
2020/12/04 16:54:48;;;;;;;17.60;9.80;;;;;;;;;;6199629;28;20032;-70
2020/12/04 16:57:49;;;;;;;19.03;10.53;;;;;;;;;;6201768;28;20037;-68
2020/12/04 17:00:49;;;;;;;19.67;11.07;;;;;;;;;;6196091;28;20070;-67
2020/12/04 17:03:49;;;;;;;17.17;10.27;;;;;;;;;;6203679;28;23217;-66
2020/12/04 17:06:50;;;;;;;20.90;10.73;;;;;;;;;;6202635;28;20520;-69
2020/12/04 17:09:51;;;;;;;19.17;10.80;;;;;;;;;;6208895;28;20038;-68
2020/12/04 17:12:53;;;;;;;17.45;10.82;;;;;;;;;;6198579;28;20034;-66
2020/12/04 17:15:53;;;;;;;17.45;11.02;;;;;;;;;;6202377;28;20368;-68
2020/12/04 17:18:53;;;;;;;18.70;10.63;;;;;;;;;;6203595;28;20037;-69
2020/12/04 17:21:54;;;;;;;16.90;10.40;;;;;;;;;;6204495;28;20364;-69
2020/12/04 17:24:54;;;;;;;16.27;10.67;;;;;;;;;;6208083;28;20048;-68
2020/12/04 17:27:54;;;;;;;15.87;10.17;;;;;;;;;;6213286;28;20030;-70
2020/12/04 17:30:54;;;;;;;15.97;10.13;;;;;;;;;;6200875;28;20026;-71
2020/12/04 17:33:55;;;;;;;17.63;9.93;;;;;;;;;;6204604;28;20168;-69
2020/12/04 17:36:55;;;;;;;17.80;10.40;;;;;;;;;;6209422;28;20080;-66
2020/12/04 17:39:55;;;;;;;17.50;10.67;;;;;;;;;;6205644;28;20037;-75
2020/12/04 17:42:56;;;;;;;19.73;10.77;;;;;;;;;;6214446;28;20029;-71
2020/12/04 17:45:56;;;;;;;16.42;10.32;;;;;;;;;;6204416;28;20030;-68
2020/12/04 17:48:56;;;;;;;16.33;10.03;;;;;;;;;;6202470;28;20030;-74
2020/12/04 17:51:57;;;;;;;16.67;9.13;;;;;;;;;;6204617;28;20027;-74
2020/12/04 17:54:57;;;;;;;16.57;10.03;;;;;;;;;;6219792;28;20057;-74